Hat Yai International Airport


Codes: VTSS/HDY
Name: Hat Yai International Airport
City: Hat Yai
Country: Thailand
Elevation: 90 ft.
Wikipedia:

Photos at Hat Yai International Airport


   Photos courtesy of SpottingLog. You can add your own sightings and photos by signing up for a free trial today.



No photos found.

Weather at Hat Yai International Airport


Time (UTC)DescriptionTempratureWindCloud coverageVisibilityPressureHumidity
18-Apr-2024 00:00Scattered Clouds25°C0 mph, E46%10000m1009hPa92%
18-Apr-2024 03:00Scattered Clouds31°C2 mph, NE39%10000m1009hPa61%
18-Apr-2024 06:00Broken Clouds40°C4 mph, NE52%10000m1007hPa23%
18-Apr-2024 09:00Scattered Clouds37°C7 mph, NE34%10000m1004hPa36%
18-Apr-2024 12:00Broken Clouds29°C2 mph, E67%10000m1007hPa64%
18-Apr-2024 15:00Overcast Clouds26°C0 mph, SE99%10000m1009hPa80%
18-Apr-2024 18:00Overcast Clouds26°C2 mph, SW100%10000m1007hPa84%
18-Apr-2024 21:00Broken Clouds25°C0 mph, W74%10000m1007hPa88%
19-Apr-2024 00:00Broken Clouds27°C0 mph, SW82%10000m1009hPa81%
19-Apr-2024 03:00Broken Clouds35°C2 mph, W63%10000m1009hPa48%
19-Apr-2024 06:00Broken Clouds40°C4 mph, N78%10000m1005hPa26%
19-Apr-2024 09:00Light Rain34°C2 mph, NW88%10000m1004hPa48%
19-Apr-2024 12:00Light Rain28°C4 mph, S89%10000m1006hPa77%
19-Apr-2024 15:00Light Rain26°C2 mph, W97%10000m1009hPa88%
19-Apr-2024 18:00Light Rain26°C2 mph, W99%10000m1008hPa89%
19-Apr-2024 21:00Overcast Clouds25°C2 mph, SW100%10000m1006hPa90%
20-Apr-2024 00:00Overcast Clouds26°C2 mph, SW100%10000m1008hPa87%
20-Apr-2024 03:00Overcast Clouds34°C2 mph, NW100%10000m1009hPa51%
20-Apr-2024 06:00Overcast Clouds38°C4 mph, NE100%10000m1005hPa35%
20-Apr-2024 09:00Overcast Clouds34°C4 mph, NE100%10000m1004hPa45%
20-Apr-2024 12:00Light Rain29°C4 mph, NE100%10000m1006hPa73%
20-Apr-2024 15:00Overcast Clouds27°C2 mph, SW99%10000m1008hPa84%
20-Apr-2024 18:00Overcast Clouds26°C2 mph, SW99%10000m1008hPa88%
20-Apr-2024 21:00Overcast Clouds25°C2 mph, SW100%10000m1007hPa90%
21-Apr-2024 00:00Overcast Clouds27°C2 mph, S100%10000m1009hPa84%
21-Apr-2024 03:00Overcast Clouds34°C4 mph, NW100%10000m1010hPa51%
21-Apr-2024 06:00Overcast Clouds39°C9 mph, NE100%10000m1006hPa31%
21-Apr-2024 09:00Light Rain30°C7 mph, SW97%10000m1005hPa69%
21-Apr-2024 12:00Light Rain27°C2 mph, S98%10000m1007hPa83%
21-Apr-2024 15:00Overcast Clouds26°C2 mph, S94%10000m1009hPa88%
21-Apr-2024 18:00Overcast Clouds25°C2 mph, SW97%10000m1008hPa92%
21-Apr-2024 21:00Broken Clouds24°C2 mph, SW79%10000m1007hPa95%
22-Apr-2024 00:00Overcast Clouds26°C2 mph, SW87%10000m1008hPa88%
22-Apr-2024 03:00Overcast Clouds33°C7 mph, SW99%10000m1009hPa57%
22-Apr-2024 06:00Overcast Clouds39°C4 mph, W94%10000m1006hPa29%
22-Apr-2024 09:00Overcast Clouds34°C4 mph, W97%10000m1005hPa46%
22-Apr-2024 12:00Light Rain27°C4 mph, W97%10000m1007hPa80%
22-Apr-2024 15:00Scattered Clouds26°C2 mph, SW50%10000m1009hPa87%
22-Apr-2024 18:00Broken Clouds25°C2 mph, SW75%10000m1008hPa92%
22-Apr-2024 21:00Overcast Clouds25°C2 mph, SW100%10000m1007hPa94%